Time;durP1;ratioP1;P1;durP2;ratioP2;P2;SDS_P1;SDS_P2;PMS_P1;PMS_P2;Temp;Humidity;BMP_temperature;BMP_pressure;BME280_temperature;BME280_humidity;BME280_pressure;Samples;Min_cycle;Max_cycle;Signal;HPM_P1;HPM_P2
2022/04/23 00:01:12;;;;;;;10.30;9.30;;;;;;;9.64;71.50;98833.16;5064674;28;20319;-57
2022/04/23 00:03:38;;;;;;;11.37;10.27;;;;;;;9.58;72.01;98833.59;5072284;28;20165;-58
2022/04/23 00:06:03;;;;;;;11.23;9.93;;;;;;;9.60;72.08;98829.13;5073628;28;20181;-57
2022/04/23 00:08:29;;;;;;;11.63;10.53;;;;;;;9.51;72.23;98828.88;5073273;28;20526;-60
2022/04/23 00:10:54;;;;;;;11.20;9.93;;;;;;;9.44;72.67;98837.09;5069213;28;20231;-57
2022/04/23 00:13:20;;;;;;;13.60;9.83;;;;;;;9.44;72.41;98832.81;5082037;28;20183;-57
2022/04/23 00:15:46;;;;;;;11.67;10.27;;;;;;;9.47;72.37;98831.75;5071655;28;20223;-58
2022/04/23 00:18:11;;;;;;;11.10;9.90;;;;;;;9.45;72.32;98831.88;5073140;28;20183;-58
2022/04/23 00:20:38;;;;;;;12.90;10.80;;;;;;;9.42;72.58;98832.09;5066557;28;20621;-58
2022/04/23 00:23:05;;;;;;;14.13;11.10;;;;;;;9.38;72.61;98828.09;5071868;28;20627;-58
2022/04/23 00:25:31;;;;;;;12.13;10.23;;;;;;;9.35;72.86;98831.69;5073144;28;20176;-58
2022/04/23 00:27:57;;;;;;;11.17;10.00;;;;;;;9.34;73.15;98835.19;5072986;28;20229;-58
2022/04/23 00:30:22;;;;;;;12.00;10.70;;;;;;;9.29;73.61;98834.69;5064730;28;20221;-58
2022/04/23 00:32:48;;;;;;;9.93;8.93;;;;;;;9.32;73.07;98837.03;5068681;28;20224;-57
2022/04/23 00:35:19;;;;;;;11.70;10.50;;;;;;;9.26;73.82;98841.78;5066182;28;20224;-57
2022/04/23 00:37:45;;;;;;;12.00;10.63;;;;;;;9.22;74.08;98837.81;5053103;28;20169;-56
2022/04/23 00:40:17;;;;;;;13.50;11.23;;;;;;;9.22;73.90;98843.75;5060301;28;20181;-58
2022/04/23 00:42:51;;;;;;;13.67;10.43;;;;;;;9.24;74.18;98841.06;5071261;28;20180;-57
2022/04/23 00:45:18;;;;;;;12.60;10.83;;;;;;;9.23;74.10;98837.69;5071300;28;20187;-57
2022/04/23 00:47:43;;;;;;;15.37;12.57;;;;;;;9.17;74.34;98836.34;5071200;28;20230;-56
2022/04/23 00:50:10;;;;;;;13.13;11.87;;;;;;;9.15;74.77;98835.66;5062139;28;20177;-58
2022/04/23 00:52:35;;;;;;;12.77;11.40;;;;;;;9.12;75.07;98835.03;5070854;28;20200;-57
2022/04/23 00:55:05;;;;;;;12.10;10.83;;;;;;;9.12;74.98;98840.97;5072455;28;20651;-57
2022/04/23 00:57:31;;;;;;;13.03;11.67;;;;;;;9.13;74.82;98837.50;5077579;28;20495;-58
2022/04/23 00:59:57;;;;;;;12.53;11.13;;;;;;;9.12;75.19;98838.41;5091226;28;20176;-58
2022/04/23 01:02:22;;;;;;;14.53;12.13;;;;;;;9.09;75.38;98830.09;5081631;28;20299;-58
2022/04/23 01:04:48;;;;;;;17.47;12.07;;;;;;;9.08;75.38;98828.47;5092496;28;20183;-56
2022/04/23 01:07:14;;;;;;;14.03;12.47;;;;;;;9.03;75.63;98826.25;5091378;28;20230;-57
2022/04/23 01:09:44;;;;;;;14.77;13.00;;;;;;;9.01;75.67;98826.31;5092105;28;20299;-57
2022/04/23 01:12:10;;;;;;;14.00;12.50;;;;;;;8.96;76.44;98830.13;5083418;28;20238;-57
2022/04/23 01:15:15;;;;;;;14.10;12.70;;;;;;;9.00;75.94;98839.25;5090992;28;20681;-58
2022/04/23 01:17:42;;;;;;;13.80;11.40;;;;;;;8.98;76.24;98826.53;5092087;28;20270;-56
2022/04/23 01:20:10;;;;;;;13.33;11.93;;;;;;;8.93;76.92;98820.06;5080972;28;20172;-57
2022/04/23 01:22:39;;;;;;;13.37;11.97;;;;;;;8.93;76.90;98831.19;5090027;28;20635;-56
2022/04/23 01:25:06;;;;;;;13.90;12.47;;;;;;;8.93;77.11;98831.19;5091058;28;20176;-57
2022/04/23 01:27:32;;;;;;;17.13;13.77;;;;;;;8.90;77.35;98836.50;5082921;28;20232;-56
2022/04/23 01:29:58;;;;;;;13.97;12.30;;;;;;;8.84;77.99;98830.06;5070505;28;20169;-58
2022/04/23 01:32:23;;;;;;;14.30;12.67;;;;;;;8.83;78.33;98830.13;5073326;28;20377;-58
2022/04/23 01:34:49;;;;;;;15.43;13.67;;;;;;;8.79;78.69;98831.28;5074116;28;20184;-57
2022/04/23 01:37:17;;;;;;;15.63;13.53;;;;;;;8.74;79.04;98831.56;5077449;28;20175;-57
2022/04/23 01:39:49;;;;;;;14.67;13.13;;;;;;;8.71;79.34;98829.22;5071670;28;20211;-57
2022/04/23 01:42:17;;;;;;;15.97;14.27;;;;;;;8.73;79.37;98835.06;5077308;28;20226;-57
2022/04/23 01:44:44;;;;;;;16.63;13.33;;;;;;;8.69;79.79;98831.88;5070468;28;20521;-57
2022/04/23 01:47:10;;;;;;;15.83;14.23;;;;;;;8.74;79.46;98825.66;5071832;28;20180;-57
2022/04/23 01:49:36;;;;;;;15.07;13.47;;;;;;;8.70;79.78;98833.53;5070327;28;20187;-62
2022/04/23 01:52:01;;;;;;;15.47;13.90;;;;;;;8.71;80.19;98844.63;5077007;28;20239;-57
2022/04/23 01:54:26;;;;;;;15.77;14.07;;;;;;;8.67;80.46;98840.59;5071977;28;20206;-57
2022/04/23 01:56:52;;;;;;;17.10;13.97;;;;;;;8.70;80.51;98846.34;5071539;28;20229;-57
2022/04/23 01:59:17;;;;;;;15.77;14.07;;;;;;;8.65;81.04;98835.59;5051391;28;20183;-57
2022/04/23 02:01:42;;;;;;;17.30;15.50;;;;;;;8.67;80.74;98840.59;5054519;28;20590;-57
2022/04/23 02:04:08;;;;;;;14.90;13.37;;;;;;;8.60;81.44;98849.66;5050340;28;20181;-57
2022/04/23 02:06:34;;;;;;;17.60;14.83;;;;;;;8.73;81.38;98842.75;5051663;28;20185;-56
2022/04/23 02:09:01;;;;;;;15.83;14.13;;;;;;;8.63;81.63;98844.31;5049951;28;20177;-56
2022/04/23 02:11:26;;;;;;;17.60;15.10;;;;;;;8.62;81.81;98851.19;5043410;28;20240;-56
2022/04/23 02:13:51;;;;;;;16.33;14.40;;;;;;;8.63;81.95;98845.09;5056173;28;20711;-58
2022/04/23 02:16:17;;;;;;;15.20;13.60;;;;;;;8.61;82.05;98843.56;5050281;28;20631;-57
2022/04/23 02:18:42;;;;;;;15.90;14.20;;;;;;;8.53;82.48;98842.38;5051204;28;20175;-57
2022/04/23 02:21:07;;;;;;;16.80;15.07;;;;;;;8.60;82.38;98842.75;5049465;28;20713;-57
2022/04/23 02:23:32;;;;;;;17.00;15.20;;;;;;;8.51;82.88;98844.19;5058781;28;20181;-57
2022/04/23 02:25:58;;;;;;;17.63;15.00;;;;;;;8.47;83.79;98836.81;5065974;28;20217;-57
2022/04/23 02:28:24;;;;;;;15.67;13.97;;;;;;;8.45;83.53;98834.31;5069626;28;20616;-58
2022/04/23 02:30:49;;;;;;;15.07;13.57;;;;;;;8.42;84.17;98841.38;5066964;28;20222;-58
2022/04/23 02:33:14;;;;;;;15.47;13.80;;;;;;;8.49;83.78;98830.66;5080892;28;20175;-57
2022/04/23 02:35:40;;;;;;;18.40;14.40;;;;;;;8.43;84.26;98837.91;5073832;28;20222;-58
2022/04/23 02:38:05;;;;;;;19.23;15.33;;;;;;;8.40;84.79;98831.25;5075220;28;20188;-57
2022/04/23 02:40:31;;;;;;;14.23;12.73;;;;;;;8.37;84.67;98826.31;5068095;28;20702;-58
2022/04/23 02:42:57;;;;;;;17.27;14.40;;;;;;;8.36;85.19;98825.50;5087040;28;20172;-58
2022/04/23 02:45:23;;;;;;;18.70;14.77;;;;;;;8.32;85.76;98820.66;5074972;28;20174;-58
2022/04/23 02:47:50;;;;;;;16.73;14.53;;;;;;;8.32;86.05;98816.38;5073616;28;20188;-56
2022/04/23 02:50:25;;;;;;;16.77;15.07;;;;;;;8.31;86.30;98814.72;5064450;28;20183;-59
2022/04/23 02:52:50;;;;;;;17.87;15.23;;;;;;;8.33;86.26;98812.88;5087540;28;20191;-57
2022/04/23 02:55:15;;;;;;;16.83;14.93;;;;;;;8.31;86.67;98809.63;5074738;28;20261;-58
2022/04/23 02:57:41;;;;;;;17.00;15.20;;;;;;;8.28;86.89;98814.91;5081532;28;20259;-58
2022/04/23 03:00:07;;;;;;;17.63;14.53;;;;;;;8.27;86.86;98817.59;5073351;28;20171;-58
2022/04/23 03:02:36;;;;;;;15.93;14.43;;;;;;;8.24;87.56;98814.28;5093454;28;20201;-57
2022/04/23 03:05:03;;;;;;;17.23;14.87;;;;;;;8.28;87.68;98814.91;5093946;28;20333;-56
2022/04/23 03:07:30;;;;;;;17.03;15.27;;;;;;;8.24;88.00;98818.63;5095043;28;20190;-57
2022/04/23 03:09:55;;;;;;;19.93;16.73;;;;;;;8.23;88.02;98814.41;5094541;28;20172;-58
2022/04/23 03:12:22;;;;;;;17.07;15.27;;;;;;;8.25;87.99;98815.13;5100447;28;20252;-59
2022/04/23 03:14:47;;;;;;;17.63;14.70;;;;;;;8.29;87.72;98811.44;5093141;28;20187;-57
2022/04/23 03:17:12;;;;;;;17.77;14.97;;;;;;;8.26;88.03;98816.78;5100269;28;20240;-57
2022/04/23 03:19:38;;;;;;;16.97;15.27;;;;;;;8.29;87.77;98819.13;5094419;28;20163;-57
2022/04/23 03:22:03;;;;;;;21.00;15.37;;;;;;;8.29;87.88;98814.00;5098267;28;20246;-57
2022/04/23 03:24:29;;;;;;;17.87;15.97;;;;;;;8.30;88.42;98820.78;5054314;28;20176;-57
2022/04/23 03:26:54;;;;;;;17.13;15.33;;;;;;;8.31;88.04;98824.16;5070771;28;20222;-58
2022/04/23 03:29:20;;;;;;;16.23;14.53;;;;;;;8.30;88.21;98820.78;5073717;28;20216;-57
2022/04/23 03:31:48;;;;;;;17.60;14.30;;;;;;;8.33;88.65;98817.19;5036381;28;20210;-57
2022/04/23 03:34:14;;;;;;;18.03;15.67;;;;;;;8.31;88.42;98824.97;5073641;28;20202;-58
2022/04/23 03:36:39;;;;;;;16.90;15.03;;;;;;;8.28;88.96;98827.72;5073981;28;20179;-58
2022/04/23 03:39:04;;;;;;;18.73;15.63;;;;;;;8.33;88.80;98827.44;5073705;28;20515;-56
2022/04/23 03:41:30;;;;;;;16.40;14.07;;;;;;;8.35;89.02;98823.03;5075183;28;20227;-57
2022/04/23 03:43:55;;;;;;;17.33;15.53;;;;;;;8.35;88.54;98823.03;5078367;28;20186;-57
2022/04/23 03:46:21;;;;;;;16.70;15.00;;;;;;;8.37;88.81;98823.75;5073111;28;20599;-58
2022/04/23 03:48:46;;;;;;;16.80;15.10;;;;;;;8.35;88.99;98823.84;5072541;28;20190;-59
2022/04/23 03:51:11;;;;;;;16.57;14.73;;;;;;;8.31;89.66;98819.84;5072313;28;20237;-57
2022/04/23 03:53:37;;;;;;;18.37;14.00;;;;;;;8.33;89.59;98818.00;5072678;28;20215;-58
2022/04/23 03:56:03;;;;;;;15.93;14.30;;;;;;;8.31;89.84;98830.09;5073848;28;20172;-57
2022/04/23 03:58:28;;;;;;;16.97;15.17;;;;;;;8.29;90.06;98828.56;5068786;28;20379;-58
2022/04/23 04:00:54;;;;;;;17.13;14.60;;;;;;;8.33;90.25;98827.44;5089952;28;20318;-58
2022/04/23 04:03:19;;;;;;;16.83;15.03;;;;;;;8.35;90.00;98830.72;5103442;28;20172;-57
2022/04/23 04:05:47;;;;;;;18.80;15.13;;;;;;;8.30;90.25;98831.03;5093994;28;20270;-57
2022/04/23 04:08:13;;;;;;;15.97;14.30;;;;;;;8.31;90.67;98834.41;5093821;28;20705;-58
2022/04/23 04:10:38;;;;;;;16.77;14.53;;;;;;;8.33;90.40;98841.06;5084588;28;20379;-56
2022/04/23 04:13:04;;;;;;;17.37;14.83;;;;;;;8.38;90.01;98838.19;5104498;28;20269;-57
2022/04/23 04:15:29;;;;;;;15.07;13.40;;;;;;;8.40;90.19;98831.25;5093295;28;20191;-57
2022/04/23 04:17:55;;;;;;;15.00;13.50;;;;;;;8.35;90.42;98826.41;5093734;28;20179;-56
2022/04/23 04:20:22;;;;;;;16.60;14.77;;;;;;;8.41;90.21;98832.88;5077331;28;20663;-57
2022/04/23 04:22:47;;;;;;;16.53;14.80;;;;;;;8.30;90.74;98832.75;5071163;28;20198;-57
2022/04/23 04:25:13;;;;;;;15.50;13.90;;;;;;;8.36;90.67;98829.78;5071667;28;20220;-57
2022/04/23 04:27:39;;;;;;;15.33;13.77;;;;;;;8.35;90.61;98828.97;5071552;28;20239;-58
2022/04/23 04:30:07;;;;;;;17.50;14.27;;;;;;;8.35;90.72;98838.41;5060938;28;20660;-58
2022/04/23 04:32:33;;;;;;;14.77;12.80;;;;;;;8.51;90.58;98844.19;5087795;28;20638;-57
2022/04/23 04:34:58;;;;;;;15.53;13.93;;;;;;;8.44;90.36;98840.34;5072929;28;20204;-57
2022/04/23 04:37:24;;;;;;;15.30;13.20;;;;;;;8.41;90.86;98838.00;5073018;28;20256;-57
2022/04/23 04:39:49;;;;;;;14.63;13.10;;;;;;;8.40;91.07;98838.94;5071026;28;20259;-57
2022/04/23 04:42:14;;;;;;;14.13;12.20;;;;;;;8.62;90.68;98846.06;5078101;28;20686;-56
2022/04/23 04:44:40;;;;;;;14.30;12.90;;;;;;;8.60;90.14;98841.94;5072324;28;21020;-57
2022/04/23 04:47:06;;;;;;;14.40;12.80;;;;;;;8.67;89.55;98849.13;5071752;28;20196;-57
2022/04/23 04:49:31;;;;;;;13.43;12.03;;;;;;;8.76;89.24;98847.69;5065729;28;20280;-58
2022/04/23 04:51:57;;;;;;;14.93;13.43;;;;;;;8.89;88.63;98850.22;5056519;28;20220;-57
2022/04/23 04:54:22;;;;;;;14.60;13.10;;;;;;;8.90;87.90;98845.94;5072387;28;20686;-57
2022/04/23 04:56:52;;;;;;;13.27;11.87;;;;;;;8.92;87.86;98842.34;5073024;28;20183;-57
2022/04/23 04:59:20;;;;;;;13.43;12.10;;;;;;;8.96;87.35;98845.53;5050419;28;20180;-57
2022/04/23 05:01:46;;;;;;;13.13;11.83;;;;;;;8.99;87.03;98848.72;5040945;28;20320;-58
2022/04/23 05:04:12;;;;;;;12.37;11.17;;;;;;;9.01;86.90;98851.97;5049321;28;20185;-58
2022/04/23 05:06:37;;;;;;;14.60;11.57;;;;;;;8.99;87.01;98845.31;5052203;28;20170;-59
2022/04/23 05:09:02;;;;;;;13.13;11.83;;;;;;;8.99;87.00;98846.16;5052004;28;20640;-58
2022/04/23 05:11:27;;;;;;;12.50;11.30;;;;;;;9.00;87.57;98845.19;5052948;28;20228;-57
2022/04/23 05:13:53;;;;;;;13.70;11.47;;;;;;;9.00;87.23;98855.47;5056460;28;20192;-58
2022/04/23 05:16:18;;;;;;;12.33;10.73;;;;;;;9.08;87.08;98851.56;5051231;28;20177;-58
2022/04/23 05:18:44;;;;;;;11.70;10.60;;;;;;;9.07;87.22;98840.47;5065727;28;20169;-57
2022/04/23 05:21:10;;;;;;;12.27;10.93;;;;;;;9.05;87.43;98842.31;5059023;28;20217;-57
2022/04/23 05:23:36;;;;;;;11.17;10.07;;;;;;;9.07;87.49;98847.34;5050708;28;20204;-58
2022/04/23 05:26:03;;;;;;;11.03;10.03;;;;;;;9.06;87.46;98848.28;5050792;28;20601;-57
2022/04/23 05:28:29;;;;;;;11.60;10.50;;;;;;;9.08;87.35;98846.41;5050326;28;20312;-59
2022/04/23 05:30:54;;;;;;;11.50;10.30;;;;;;;9.12;87.53;98850.44;5055645;28;20266;-59
2022/04/23 05:33:20;;;;;;;13.23;9.67;;;;;;;9.15;87.28;98848.47;5080768;28;20738;-58
2022/04/23 05:35:45;;;;;;;12.03;9.80;;;;;;;9.34;86.49;98844.63;5071769;28;20217;-57
2022/04/23 05:38:10;;;;;;;11.43;9.93;;;;;;;9.38;85.92;98851.19;5071964;28;20210;-58
2022/04/23 05:40:36;;;;;;;11.27;10.07;;;;;;;9.43;85.66;98850.88;5065351;28;20231;-58
2022/04/23 05:43:01;;;;;;;12.23;9.30;;;;;;;9.39;85.89;98859.72;5082893;28;20547;-57
2022/04/23 05:45:28;;;;;;;10.00;9.10;;;;;;;9.43;85.65;98853.44;5071984;28;20183;-58
2022/04/23 05:47:53;;;;;;;10.63;9.53;;;;;;;9.46;85.68;98853.22;5070615;28;20179;-58
2022/04/23 05:50:19;;;;;;;9.67;8.77;;;;;;;9.62;84.83;98860.66;5061989;28;20177;-57
2022/04/23 05:52:45;;;;;;;10.07;9.07;;;;;;;9.79;83.76;98850.03;5084471;28;20197;-57
2022/04/23 05:55:12;;;;;;;10.00;8.63;;;;;;;9.84;82.99;98854.84;5070266;28;20310;-57
2022/04/23 05:57:37;;;;;;;8.87;8.07;;;;;;;9.87;82.46;98856.38;5076361;28;20291;-58
2022/04/23 06:00:09;;;;;;;9.90;8.83;;;;;;;9.85;82.23;98857.28;5085787;28;20677;-58
2022/04/23 06:02:35;;;;;;;7.97;7.17;;;;;;;9.96;81.20;98851.38;5073695;28;20228;-59
2022/04/23 06:05:00;;;;;;;9.23;8.33;;;;;;;10.09;80.57;98859.03;5068285;28;20212;-58
2022/04/23 06:07:25;;;;;;;8.17;7.30;;;;;;;10.24;79.58;98857.09;5067985;28;20618;-57
2022/04/23 06:09:51;;;;;;;8.53;7.73;;;;;;;10.33;78.89;98864.13;5073650;28;20192;-59
2022/04/23 06:12:16;;;;;;;7.53;6.83;;;;;;;10.35;78.21;98866.59;5061983;28;20371;-59
2022/04/23 06:14:43;;;;;;;8.97;7.40;;;;;;;10.39;78.03;98864.66;5074924;28;20623;-59
2022/04/23 06:17:10;;;;;;;8.20;7.07;;;;;;;10.63;76.70;98878.25;5071495;28;20644;-58
2022/04/23 06:19:37;;;;;;;9.40;7.33;;;;;;;10.56;76.53;98874.50;5058843;28;20201;-58
2022/04/23 06:22:03;;;;;;;8.23;6.07;;;;;;;10.63;75.68;98885.97;5059772;28;20219;-58
2022/04/23 06:24:28;;;;;;;9.47;6.80;;;;;;;10.72;75.67;98879.31;5050465;28;20277;-58
2022/04/23 06:26:54;;;;;;;6.83;6.23;;;;;;;10.97;74.69;98877.47;5053974;28;20190;-57
2022/04/23 06:29:19;;;;;;;7.17;6.47;;;;;;;10.91;74.53;98880.50;5054817;28;20810;-58
2022/04/23 06:31:44;;;;;;;6.80;6.10;;;;;;;11.25;73.19;98873.63;5057612;28;20426;-58
2022/04/23 06:34:10;;;;;;;7.50;6.77;;;;;;;11.36;71.39;98875.38;5072402;28;20205;-58
2022/04/23 06:36:39;;;;;;;7.03;6.43;;;;;;;11.72;70.17;98875.16;5061339;28;20188;-58
2022/04/23 06:39:04;;;;;;;7.47;6.63;;;;;;;12.12;67.48;98872.03;5071150;28;20628;-56
2022/04/23 06:41:29;;;;;;;6.50;5.90;;;;;;;12.08;66.97;98879.19;5049126;28;20268;-57
2022/04/23 06:43:55;;;;;;;6.87;6.23;;;;;;;12.53;65.15;98880.72;5076418;28;20189;-58
2022/04/23 06:46:20;;;;;;;5.73;5.23;;;;;;;13.25;60.91;98867.91;5074399;28;20658;-56
2022/04/23 06:48:46;;;;;;;6.17;5.57;;;;;;;13.23;60.59;98878.38;5073994;28;20674;-58
2022/04/23 06:51:11;;;;;;;5.87;5.37;;;;;;;13.72;58.63;98869.94;5072487;28;20228;-57
2022/04/23 06:53:36;;;;;;;9.63;6.20;;;;;;;13.72;57.27;98873.34;5080850;28;20211;-58
2022/04/23 06:56:03;;;;;;;5.57;5.17;;;;;;;13.98;57.04;98877.97;5071271;28;20574;-58
2022/04/23 06:58:28;;;;;;;6.10;5.60;;;;;;;13.76;57.32;98873.88;5074758;28;20177;-57
2022/04/23 07:00:54;;;;;;;5.77;5.23;;;;;;;14.47;54.78;98875.34;5053172;28;20722;-57
2022/04/23 07:03:19;;;;;;;6.13;5.53;;;;;;;14.22;55.32;98881.13;5063344;28;20176;-57
2022/04/23 07:05:44;;;;;;;6.63;5.33;;;;;;;14.72;52.92;98880.91;5054153;28;20186;-58
2022/04/23 07:08:10;;;;;;;5.43;5.00;;;;;;;13.72;56.86;98880.28;5054386;28;20265;-57
2022/04/23 07:10:36;;;;;;;5.83;5.23;;;;;;;12.94;60.31;98883.41;5046860;28;20220;-58
2022/04/23 07:13:01;;;;;;;6.00;5.40;;;;;;;12.71;61.46;98880.16;5088241;28;20181;-57
2022/04/23 07:15:28;;;;;;;5.77;5.27;;;;;;;12.25;64.02;98892.47;5065471;28;20391;-58
2022/04/23 07:17:53;;;;;;;5.80;5.20;;;;;;;12.25;64.68;98880.41;5064313;28;20203;-56
2022/04/23 07:20:19;;;;;;;6.37;5.77;;;;;;;12.72;64.04;98887.75;5064890;28;20172;-74
2022/04/23 07:25:32;;;;;;;4.40;4.00;;;;;;;13.28;58.98;98882.31;5054691;28;20216;-55
2022/04/23 07:27:58;;;;;;;5.30;4.80;;;;;;;12.65;62.11;98894.41;5068273;28;20751;-56
2022/04/23 07:30:25;;;;;;;5.27;4.53;;;;;;;12.63;63.16;98885.94;5044257;28;20722;-55
2022/04/23 07:32:52;;;;;;;4.70;4.30;;;;;;;12.69;62.34;98893.19;5086566;28;20176;-56
2022/04/23 07:38:19;;;;;;;4.37;3.70;;;;;;;13.69;58.73;98889.13;5094421;28;20183;-56
2022/04/23 07:40:45;;;;;;;3.90;3.40;;;;;;;13.89;56.85;98883.94;5088967;28;20223;-56
2022/04/23 07:43:13;;;;;;;4.10;3.70;;;;;;;13.71;57.76;98894.94;5104105;28;20184;-56
2022/04/23 07:45:39;;;;;;;4.43;3.80;;;;;;;13.41;59.38;98890.69;5093063;28;20208;-57
2022/04/23 07:48:06;;;;;;;4.03;3.70;;;;;;;13.19;59.98;98895.03;5092971;28;20192;-56
2022/04/23 07:50:37;;;;;;;4.20;3.80;;;;;;;12.55;63.24;98891.75;5084503;28;20225;-57
2022/04/23 07:53:03;;;;;;;4.47;4.07;;;;;;;12.89;62.83;98893.28;5092897;28;20210;-57
2022/04/23 07:55:32;;;;;;;4.03;3.70;;;;;;;12.96;61.47;98884.09;5092856;28;20695;-56
2022/04/23 07:57:58;;;;;;;4.00;3.70;;;;;;;13.12;61.01;98887.97;5090796;28;20222;-56
2022/04/23 08:00:25;;;;;;;4.60;4.13;;;;;;;13.11;60.55;98883.72;5085916;28;20223;-57
2022/04/23 08:02:51;;;;;;;4.23;3.90;;;;;;;12.88;61.01;98891.66;5092667;28;20301;-57
2022/04/23 08:05:17;;;;;;;4.73;4.33;;;;;;;12.74;62.15;98885.06;5094209;28;20213;-56
2022/04/23 08:07:44;;;;;;;4.70;4.30;;;;;;;13.12;60.67;98881.00;5094039;28;20172;-56
2022/04/23 08:10:09;;;;;;;4.47;4.07;;;;;;;13.36;60.20;98877.31;5082661;28;20206;-55
2022/04/23 08:12:36;;;;;;;4.53;4.13;;;;;;;13.33;60.10;98869.81;5108356;28;20176;-55
2022/04/23 08:15:04;;;;;;;4.80;4.40;;;;;;;13.55;58.74;98869.63;5066679;28;20266;-57
2022/04/23 08:17:30;;;;;;;4.00;3.70;;;;;;;13.79;57.80;98868.47;5053746;28;20169;-56
2022/04/23 08:19:55;;;;;;;5.23;4.03;;;;;;;14.10;57.17;98864.91;5053053;28;20181;-57
2022/04/23 08:22:21;;;;;;;3.40;3.10;;;;;;;14.87;54.30;98863.16;5058737;28;20240;-57
2022/04/23 08:24:46;;;;;;;3.83;3.50;;;;;;;14.38;54.24;98865.03;5053179;28;20189;-57
2022/04/23 08:27:11;;;;;;;5.00;4.40;;;;;;;15.08;52.50;98865.56;5053094;28;20555;-57
2022/04/23 08:32:20;;;;;;;3.50;3.20;;;;;;;15.45;50.55;98856.09;5058457;28;20296;-56
2022/04/23 08:34:46;;;;;;;3.40;3.10;;;;;;;15.55;50.56;98869.78;5063180;28;20204;-57
2022/04/23 08:37:12;;;;;;;3.03;2.83;;;;;;;16.65;47.65;98855.81;5071970;28;20201;-58
2022/04/23 08:39:39;;;;;;;3.10;2.90;;;;;;;17.58;45.09;98860.28;5071231;28;20168;-57
2022/04/23 08:42:06;;;;;;;3.90;3.57;;;;;;;17.00;45.95;98867.88;5081575;28;20219;-56
2022/04/23 08:44:31;;;;;;;3.60;3.00;;;;;;;17.58;44.53;98855.88;5091952;28;20263;-57
2022/04/23 08:46:57;;;;;;;3.07;2.77;;;;;;;17.22;44.86;98856.09;5093436;28;20270;-56
2022/04/23 08:49:29;;;;;;;3.83;2.67;;;;;;;16.76;46.04;98847.75;5092580;28;20336;-56
2022/04/23 08:52:11;;;;;;;3.50;3.20;;;;;;;16.20;47.70;98850.66;5097555;28;20235;-57
2022/04/23 08:54:37;;;;;;;3.47;2.70;;;;;;;16.03;47.11;98859.28;5108189;28;20245;-58
2022/04/23 08:57:03;;;;;;;3.30;3.00;;;;;;;15.65;48.79;98855.00;5089569;28;20217;-58
2022/04/23 08:59:29;;;;;;;3.90;2.83;;;;;;;15.45;48.85;98854.28;5091188;28;20176;-56
2022/04/23 09:01:55;;;;;;;3.40;3.10;;;;;;;15.93;48.82;98865.34;5097428;28;20223;-57
2022/04/23 09:04:21;;;;;;;2.80;2.50;;;;;;;16.89;46.37;98857.72;5093763;28;20176;-56
2022/04/23 09:06:48;;;;;;;2.70;2.50;;;;;;;18.32;42.68;98854.31;5092565;28;20666;-58
2022/04/23 09:09:16;;;;;;;2.97;2.60;;;;;;;16.12;46.50;98848.81;5090816;28;20207;-58
2022/04/23 09:11:44;;;;;;;3.17;2.90;;;;;;;17.38;44.79;98852.75;5066993;28;20239;-58
2022/04/23 09:14:23;;;;;;;2.67;2.47;;;;;;;18.00;42.60;98850.78;5054733;28;20189;-56
2022/04/23 09:25:10;;;;;;;4.83;2.37;;;;;;;18.05;41.69;98858.91;5072518;28;20183;-56
2022/04/23 09:27:37;;;;;;;3.77;2.53;;;;;;;17.47;43.49;98845.78;5072136;28;20228;-58
2022/04/23 09:30:21;;;;;;;2.80;2.53;;;;;;;17.21;43.32;98853.66;5062131;28;20209;-56
2022/04/23 09:32:57;;;;;;;2.90;2.70;;;;;;;16.73;45.20;98842.88;5070817;28;20189;-56
2022/04/23 09:35:24;;;;;;;2.57;2.37;;;;;;;17.59;44.01;98844.50;5087460;28;20669;-57
2022/04/23 09:40:33;;;;;;;3.20;2.73;;;;;;;19.72;38.81;98843.41;5085333;28;20230;-57
2022/04/23 09:43:02;;;;;;;2.43;2.23;;;;;;;20.05;38.80;98839.75;5103423;28;20635;-57
2022/04/23 09:45:29;;;;;;;3.57;3.27;;;;;;;18.91;40.30;98846.25;5090856;28;20275;-57
2022/04/23 09:47:56;;;;;;;4.50;3.87;;;;;;;17.71;43.19;98859.78;5090852;28;20627;-57
2022/04/23 09:50:21;;;;;;;4.30;2.90;;;;;;;16.77;45.29;98855.38;5082154;28;20191;-58
2022/04/23 09:52:49;;;;;;;3.87;3.10;;;;;;;17.59;44.19;98848.91;5104795;28;20249;-56
2022/04/23 09:55:16;;;;;;;4.83;3.63;;;;;;;16.70;45.55;98856.16;5091625;28;20556;-56
2022/04/23 09:57:42;;;;;;;7.17;4.00;;;;;;;16.72;46.25;98862.00;5088281;28;20172;-58
2022/04/23 10:00:11;;;;;;;4.67;3.70;;;;;;;16.28;46.88;98858.47;5081658;28;20168;-57
2022/04/23 10:02:38;;;;;;;4.10;3.70;;;;;;;16.88;46.15;98862.13;5105950;28;20182;-56
2022/04/23 10:05:05;;;;;;;5.10;3.50;;;;;;;18.50;42.25;98848.94;5090198;28;20183;-57
2022/04/23 10:07:33;;;;;;;4.90;3.40;;;;;;;17.83;42.56;98849.91;5089978;28;20167;-57
2022/04/23 10:10:03;;;;;;;3.63;3.23;;;;;;;17.29;44.58;98852.88;5066684;28;20246;-57
2022/04/23 10:12:33;;;;;;;4.00;3.60;;;;;;;16.83;45.13;98848.78;5040367;28;20213;-57
2022/04/23 10:15:00;;;;;;;4.53;3.10;;;;;;;16.57;46.28;98853.97;5049973;28;20265;-57
2022/04/23 10:17:28;;;;;;;4.00;3.70;;;;;;;16.22;46.81;98853.09;5049804;28;20272;-57
2022/04/23 10:19:55;;;;;;;4.43;4.03;;;;;;;15.87;47.73;98846.97;5049361;28;20699;-58
2022/04/23 10:22:28;;;;;;;5.27;3.90;;;;;;;15.52;49.10;98857.13;5040625;28;20220;-57
2022/04/23 10:25:22;;;;;;;4.53;4.13;;;;;;;16.31;46.85;98839.22;5051162;28;20181;-57
2022/04/23 10:27:49;;;;;;;8.23;3.47;;;;;;;17.15;44.30;98842.09;5051139;28;20233;-58
2022/04/23 10:30:15;;;;;;;3.93;3.63;;;;;;;17.45;43.76;98842.50;5040747;28;20181;-57
2022/04/23 10:32:41;;;;;;;3.70;3.40;;;;;;;17.69;42.38;98852.16;5049184;28;20631;-57
2022/04/23 10:35:19;;;;;;;3.83;3.20;;;;;;;17.90;42.77;98845.69;5065363;28;20254;-58
2022/04/23 10:37:48;;;;;;;5.70;3.37;;;;;;;18.31;42.02;98842.31;5071214;28;20177;-55
2022/04/23 10:40:16;;;;;;;2.87;2.60;;;;;;;17.27;44.17;98838.25;5062146;28;20600;-55
2022/04/23 10:43:04;;;;;;;5.37;3.47;;;;;;;17.18;43.58;98848.78;5104754;28;20229;-56
2022/04/23 10:45:33;;;;;;;3.73;3.43;;;;;;;16.48;45.18;98836.72;5091397;28;20168;-56
2022/04/23 10:48:22;;;;;;;4.97;3.13;;;;;;;16.62;45.19;98836.16;5089848;28;20176;-56
2022/04/23 10:51:16;;;;;;;3.90;3.40;;;;;;;16.39;46.04;98828.88;5081932;28;20235;-57
2022/04/23 10:53:41;;;;;;;3.47;3.17;;;;;;;17.09;45.00;98824.53;5090154;28;20609;-57
2022/04/23 10:56:11;;;;;;;3.57;3.27;;;;;;;17.29;44.50;98826.88;5094484;28;20216;-57
2022/04/23 10:58:43;;;;;;;5.83;3.97;;;;;;;16.35;46.02;98831.91;5075044;28;20188;-57
2022/04/23 11:01:23;;;;;;;4.10;3.80;;;;;;;15.90;46.86;98816.38;5066171;28;20705;-57
2022/04/23 11:03:55;;;;;;;4.50;4.10;;;;;;;16.07;47.65;98829.47;5094219;28;20674;-57
2022/04/23 11:12:22;;;;;;;3.93;3.63;;;;;;;16.57;44.81;98815.84;5080056;28;20574;-58
2022/04/23 11:14:48;;;;;;;3.97;3.43;;;;;;;16.49;45.42;98817.59;5089659;28;20216;-57
2022/04/23 11:17:35;;;;;;;4.40;3.90;;;;;;;16.41;45.31;98813.16;5064050;28;20258;-57
2022/04/23 11:20:00;;;;;;;4.07;3.67;;;;;;;16.34;45.89;98804.38;5071957;28;20184;-57
2022/04/23 11:22:26;;;;;;;4.77;4.33;;;;;;;16.90;44.91;98808.22;5062554;28;20981;-58
2022/04/23 11:24:53;;;;;;;4.03;3.43;;;;;;;16.85;45.19;98813.06;5062201;28;20313;-58
2022/04/23 11:27:29;;;;;;;4.80;4.40;;;;;;;16.29;46.47;98804.81;5073508;28;20236;-57
2022/04/23 11:29:55;;;;;;;4.80;4.40;;;;;;;16.25;46.52;98806.09;5071075;28;20540;-57
2022/04/23 11:32:28;;;;;;;3.70;3.40;;;;;;;16.38;46.58;98797.91;5022092;28;20274;-58
2022/04/23 11:35:07;;;;;;;12.67;3.90;;;;;;;16.18;46.93;98807.66;5065999;28;20656;-58
2022/04/23 11:37:35;;;;;;;5.23;4.73;;;;;;;16.24;46.13;98810.47;5070539;28;20267;-59
2022/04/23 11:40:12;;;;;;;4.93;4.40;;;;;;;15.70;47.96;98812.28;5068091;28;20185;-59
2022/04/23 11:42:42;;;;;;;5.03;4.53;;;;;;;15.38;48.84;98816.16;5041092;28;20294;-58
2022/04/23 11:45:09;;;;;;;5.83;5.33;;;;;;;15.26;49.63;98818.97;5053079;28;20628;-57
2022/04/23 11:47:35;;;;;;;5.70;5.20;;;;;;;15.51;49.08;98808.06;5065330;28;20200;-59
2022/04/23 11:50:14;;;;;;;6.10;5.60;;;;;;;15.51;48.65;98824.41;5071366;28;20180;-59
2022/04/23 11:52:41;;;;;;;5.90;5.30;;;;;;;15.26;49.62;98823.34;5058362;28;20227;-59
2022/04/23 11:55:11;;;;;;;6.73;6.07;;;;;;;15.30;49.66;98817.69;5071588;28;20206;-59